Time;durP1;ratioP1;P1;durP2;ratioP2;P2;SDS_P1;SDS_P2;PMS_P1;PMS_P2;Temp;Humidity;BMP_temperature;BMP_pressure;BME280_temperature;BME280_humidity;BME280_pressure;Samples;Min_cycle;Max_cycle;Signal;HPM_P1;HPM_P2
2020/12/15 00:01:54;;;;;;;120.05;29.90;;;-1.20;99.90;;;;;;5013859;28;20409;-84
2020/12/15 00:04:20;;;;;;;77.22;22.33;;;-1.10;99.90;;;;;;5027802;28;20028;-83
2020/12/15 00:06:48;;;;;;;92.88;25.55;;;-1.10;99.90;;;;;;5033621;28;20438;-83
2020/12/15 00:09:14;;;;;;;81.45;25.95;;;-1.10;99.90;;;;;;5033402;28;20502;-83
2020/12/15 00:11:40;;;;;;;104.82;29.77;;;-1.10;99.90;;;;;;5032137;28;20033;-84
2020/12/15 00:14:06;;;;;;;143.50;32.38;;;-1.10;99.90;;;;;;5038715;28;20032;-83
2020/12/15 00:16:32;;;;;;;52.78;22.75;;;-1.10;99.90;;;;;;5053142;28;20155;-83
2020/12/15 00:18:57;;;;;;;67.93;24.40;;;-1.10;99.90;;;;;;5053250;28;20052;-84
2020/12/15 00:21:25;;;;;;;108.93;27.23;;;-1.10;99.90;;;;;;5052415;28;20090;-83
2020/12/15 00:23:53;;;;;;;105.35;29.38;;;-1.20;99.90;;;;;;5046549;28;20029;-84
2020/12/15 00:26:19;;;;;;;105.97;24.30;;;-1.20;99.90;;;;;;5054454;28;20025;-84
2020/12/15 00:28:48;;;;;;;94.63;23.20;;;-1.20;99.90;;;;;;5052631;28;20120;-84
2020/12/15 00:31:14;;;;;;;107.22;23.98;;;-1.20;99.90;;;;;;5054221;28;20082;-83
2020/12/15 00:33:40;;;;;;;130.85;27.45;;;-1.20;99.90;;;;;;5051613;28;20048;-84
2020/12/15 00:36:06;;;;;;;200.40;29.95;;;-1.20;99.90;;;;;;5051949;28;20028;-83
2020/12/15 00:38:31;;;;;;;95.80;25.33;;;-1.20;99.90;;;;;;5053323;28;20150;-84
2020/12/15 00:40:57;;;;;;;87.97;23.08;;;-1.30;99.90;;;;;;5051999;28;20017;-83
2020/12/15 00:43:22;;;;;;;106.78;26.75;;;-1.30;99.90;;;;;;5051546;28;20025;-83
2020/12/15 00:45:48;;;;;;;139.70;26.33;;;-1.30;99.90;;;;;;5033062;28;20029;-84
2020/12/15 00:48:14;;;;;;;106.88;25.20;;;-1.30;99.90;;;;;;5031601;28;20033;-83
2020/12/15 00:50:39;;;;;;;117.85;26.15;;;-1.30;99.90;;;;;;5032934;28;20502;-82
2020/12/15 00:53:05;;;;;;;86.95;25.25;;;-1.30;99.90;;;;;;5030778;28;20533;-83
2020/12/15 00:55:32;;;;;;;82.10;21.33;;;-1.30;99.90;;;;;;5032844;28;20501;-83
2020/12/15 00:57:57;;;;;;;116.30;26.42;;;-1.30;99.90;;;;;;5032746;28;20038;-84
2020/12/15 01:00:23;;;;;;;128.90;30.02;;;-1.40;99.90;;;;;;5032450;28;20032;-83
2020/12/15 01:02:49;;;;;;;104.35;23.85;;;-1.40;99.90;;;;;;5032770;28;20483;-84
2020/12/15 01:05:15;;;;;;;69.72;23.15;;;-1.50;99.90;;;;;;5031430;28;20534;-83
2020/12/15 01:07:40;;;;;;;103.93;25.75;;;-1.50;99.90;;;;;;5032453;28;20062;-84
2020/12/15 01:10:06;;;;;;;86.57;25.52;;;-1.50;99.90;;;;;;5030673;28;20018;-83
2020/12/15 01:12:32;;;;;;;93.13;26.65;;;-1.50;99.90;;;;;;5032641;28;20117;-84
2020/12/15 01:14:58;;;;;;;77.68;24.75;;;-1.50;99.90;;;;;;5034926;28;20448;-83
2020/12/15 01:17:23;;;;;;;94.35;24.70;;;-1.60;99.90;;;;;;5031058;28;20034;-84
2020/12/15 01:19:49;;;;;;;87.45;23.17;;;-1.60;99.90;;;;;;5042058;28;20112;-84
2020/12/15 01:22:15;;;;;;;99.80;26.70;;;-1.60;99.90;;;;;;5052402;28;20033;-83
2020/12/15 01:24:40;;;;;;;90.18;24.20;;;-1.70;99.90;;;;;;5052562;28;20028;-83
2020/12/15 01:27:06;;;;;;;98.60;27.42;;;-1.70;99.90;;;;;;5035537;28;20022;-83
2020/12/15 01:29:32;;;;;;;64.45;23.25;;;-1.80;99.90;;;;;;5032536;28;20025;-83
2020/12/15 01:32:04;;;;;;;70.57;25.45;;;-1.70;99.90;;;;;;5033426;28;20021;-83
2020/12/15 01:34:30;;;;;;;73.13;26.23;;;-1.70;99.90;;;;;;5031038;28;20033;-83
2020/12/15 01:36:56;;;;;;;81.93;25.13;;;-1.70;99.90;;;;;;5031915;28;20053;-84
2020/12/15 01:39:23;;;;;;;107.55;26.63;;;-1.70;99.90;;;;;;5032357;28;20029;-84
2020/12/15 01:41:49;;;;;;;80.60;23.50;;;-1.70;99.90;;;;;;5031158;28;20042;-85
2020/12/15 01:44:15;;;;;;;86.90;24.27;;;-1.80;99.90;;;;;;5034174;28;20017;-84
2020/12/15 01:46:40;;;;;;;83.05;25.30;;;-1.80;99.90;;;;;;5052354;28;20052;-84
2020/12/15 01:49:08;;;;;;;91.60;26.17;;;-1.90;99.90;;;;;;5052216;28;20489;-83
2020/12/15 01:51:34;;;;;;;111.50;25.65;;;-1.80;99.90;;;;;;5050771;28;20021;-83
2020/12/15 01:54:02;;;;;;;69.40;25.42;;;-1.90;99.90;;;;;;5050984;28;20108;-83
2020/12/15 01:56:29;;;;;;;84.68;27.00;;;-1.80;99.90;;;;;;5051174;28;20033;-83
2020/12/15 01:58:57;;;;;;;101.15;31.00;;;-1.80;99.90;;;;;;5050302;28;20033;-84
2020/12/15 02:01:23;;;;;;;84.25;35.35;;;-1.80;99.90;;;;;;5051135;28;20103;-84
2020/12/15 02:03:50;;;;;;;98.55;31.40;;;-1.80;99.90;;;;;;5052847;28;20075;-84
2020/12/15 02:06:17;;;;;;;97.38;31.23;;;-1.80;99.90;;;;;;5054719;28;20021;-84
2020/12/15 02:08:43;;;;;;;118.78;30.58;;;-1.80;99.90;;;;;;5054818;28;20025;-84
2020/12/15 02:11:10;;;;;;;85.55;28.73;;;-1.80;99.90;;;;;;5054619;28;20370;-85
2020/12/15 02:13:37;;;;;;;89.10;25.23;;;-1.80;99.90;;;;;;5056694;28;20025;-85
2020/12/15 02:16:10;;;;;;;62.25;24.00;;;-1.80;99.90;;;;;;5057232;28;20504;-84
2020/12/15 02:18:38;;;;;;;92.75;28.77;;;-1.80;99.90;;;;;;5057329;28;20482;-84
2020/12/15 02:21:08;;;;;;;101.82;27.60;;;-1.80;99.90;;;;;;5057736;28;20016;-83
2020/12/15 02:23:34;;;;;;;74.32;24.30;;;-1.80;99.90;;;;;;5057316;28;20021;-84
2020/12/15 02:26:03;;;;;;;72.03;26.50;;;-1.70;99.90;;;;;;5075222;28;20101;-83
2020/12/15 02:28:29;;;;;;;95.43;29.52;;;-1.80;99.90;;;;;;5057502;28;20111;-84
2020/12/15 02:30:55;;;;;;;92.95;28.10;;;-1.80;99.90;;;;;;5057300;28;20028;-84
2020/12/15 02:33:21;;;;;;;92.78;24.85;;;-1.90;99.90;;;;;;5057056;28;20024;-84
2020/12/15 02:35:46;;;;;;;104.90;28.30;;;-1.90;99.90;;;;;;5078338;28;20040;-84
2020/12/15 02:38:12;;;;;;;93.15;27.83;;;-2.00;99.90;;;;;;5057285;28;20036;-83
2020/12/15 02:40:37;;;;;;;93.05;29.17;;;-2.00;99.90;;;;;;5057153;28;20021;-83
2020/12/15 02:43:03;;;;;;;68.07;28.52;;;-2.00;99.90;;;;;;5042031;28;20029;-84
2020/12/15 02:45:29;;;;;;;63.67;23.58;;;-2.00;99.90;;;;;;5052317;28;20033;-84
2020/12/15 02:47:55;;;;;;;67.57;26.13;;;-1.90;99.90;;;;;;5056885;28;20027;-84
2020/12/15 02:50:22;;;;;;;72.90;25.55;;;-1.80;99.90;;;;;;5057180;28;20024;-83
2020/12/15 02:52:48;;;;;;;67.43;27.25;;;-1.90;99.90;;;;;;5074906;28;20386;-83
2020/12/15 02:55:14;;;;;;;80.65;30.48;;;-1.80;99.90;;;;;;5056896;28;20029;-83
2020/12/15 02:57:40;;;;;;;69.85;26.50;;;-1.80;99.90;;;;;;5056161;28;20052;-84
2020/12/15 03:00:12;;;;;;;81.32;27.55;;;-1.80;99.90;;;;;;5073959;28;20025;-83
2020/12/15 03:02:38;;;;;;;80.93;26.85;;;-1.70;99.90;;;;;;5056848;28;20067;-83
2020/12/15 03:05:05;;;;;;;75.30;29.30;;;-1.70;99.90;;;;;;5056682;28;20052;-83
2020/12/15 03:07:31;;;;;;;64.60;24.88;;;-1.70;99.90;;;;;;5064984;28;20029;-83
2020/12/15 03:09:58;;;;;;;61.72;25.27;;;-1.70;99.90;;;;;;5069934;28;20047;-84
2020/12/15 03:12:23;;;;;;;73.03;28.73;;;-1.70;99.90;;;;;;5054872;28;20083;-84
2020/12/15 03:14:49;;;;;;;70.68;27.08;;;-1.70;99.90;;;;;;5035897;28;20033;-84
2020/12/15 03:17:18;;;;;;;69.38;28.13;;;-1.70;99.90;;;;;;5069572;28;20390;-85
2020/12/15 03:19:44;;;;;;;83.55;31.85;;;-1.60;99.90;;;;;;5054326;28;20017;-85
2020/12/15 03:22:13;;;;;;;125.75;45.40;;;-1.60;99.90;;;;;;5036722;28;20028;-85
2020/12/15 03:24:39;;;;;;;134.48;50.55;;;-1.60;99.90;;;;;;5069937;28;20025;-85
2020/12/15 03:27:04;;;;;;;92.00;37.53;;;-1.70;99.90;;;;;;5071617;28;20025;-85
2020/12/15 03:29:30;;;;;;;86.03;30.70;;;-1.70;99.90;;;;;;5036257;28;20021;-84
2020/12/15 03:31:56;;;;;;;121.40;41.30;;;-1.60;99.90;;;;;;5069164;28;20031;-84
2020/12/15 03:34:21;;;;;;;94.80;34.50;;;-1.60;99.90;;;;;;5036368;28;20025;-84
2020/12/15 03:36:47;;;;;;;95.30;30.48;;;-1.70;99.90;;;;;;5071987;28;20562;-84
2020/12/15 03:39:13;;;;;;;116.35;35.70;;;-1.70;99.90;;;;;;5057300;28;20478;-84
2020/12/15 03:41:38;;;;;;;95.18;32.78;;;-1.60;99.90;;;;;;5073802;28;20031;-84
2020/12/15 03:44:04;;;;;;;108.80;33.40;;;-1.60;99.90;;;;;;5056508;28;20028;-84
2020/12/15 03:46:30;;;;;;;92.53;29.75;;;-1.60;99.90;;;;;;5058690;28;20452;-84
2020/12/15 03:48:56;;;;;;;104.22;32.70;;;-1.60;99.90;;;;;;5055403;28;20437;-83
2020/12/15 03:51:21;;;;;;;102.65;32.83;;;-1.60;99.90;;;;;;5056872;28;20070;-84
2020/12/15 03:53:47;;;;;;;104.20;31.20;;;-1.60;99.90;;;;;;5073614;28;20097;-84
2020/12/15 03:56:13;;;;;;;82.20;29.05;;;-1.60;99.90;;;;;;5056066;28;20067;-84
2020/12/15 03:58:38;;;;;;;97.75;32.70;;;-1.60;99.90;;;;;;5055498;28;20036;-84
2020/12/15 04:01:04;;;;;;;86.40;33.17;;;-1.60;99.90;;;;;;5055682;28;20141;-84
2020/12/15 04:03:31;;;;;;;88.35;30.88;;;-1.50;99.90;;;;;;5055499;28;20367;-84
2020/12/15 04:05:59;;;;;;;143.10;42.53;;;-1.60;99.90;;;;;;5055383;28;20103;-84
2020/12/15 04:08:25;;;;;;;108.07;37.60;;;-1.50;99.90;;;;;;5053311;28;20501;-84
2020/12/15 04:10:51;;;;;;;111.32;35.00;;;-1.50;99.90;;;;;;5055448;28;20021;-83
2020/12/15 04:13:17;;;;;;;126.80;42.42;;;-1.50;99.90;;;;;;5072748;28;20470;-84
2020/12/15 04:15:43;;;;;;;94.55;37.15;;;-1.50;99.90;;;;;;5055464;28;20067;-84
2020/12/15 04:18:09;;;;;;;110.30;33.30;;;-1.50;99.90;;;;;;5055143;28;20040;-84
2020/12/15 04:20:34;;;;;;;116.70;36.45;;;-1.50;99.90;;;;;;5073140;28;20478;-83
2020/12/15 04:23:00;;;;;;;126.15;36.20;;;-1.50;99.90;;;;;;5072469;28;20039;-84
2020/12/15 04:25:26;;;;;;;103.97;34.08;;;-1.50;99.90;;;;;;5055117;28;20024;-82
2020/12/15 04:27:51;;;;;;;134.32;37.15;;;-1.50;99.90;;;;;;5055430;28;20020;-84
2020/12/15 04:30:17;;;;;;;102.70;31.38;;;-1.50;99.90;;;;;;5073037;28;20096;-83
2020/12/15 04:32:43;;;;;;;91.40;29.42;;;-1.70;99.90;;;;;;5073064;28;20024;-84
2020/12/15 04:35:08;;;;;;;106.03;28.48;;;-1.70;99.90;;;;;;5074522;28;20035;-84
2020/12/15 04:37:34;;;;;;;118.18;33.25;;;-1.80;99.90;;;;;;5046287;28;20033;-84
2020/12/15 04:40:00;;;;;;;89.55;29.67;;;-1.80;99.90;;;;;;5052715;28;20028;-84
2020/12/15 04:42:26;;;;;;;96.20;34.88;;;-1.80;99.90;;;;;;5034861;28;20025;-84
2020/12/15 04:44:52;;;;;;;103.18;30.48;;;-1.80;99.90;;;;;;5067476;28;20048;-83
2020/12/15 04:47:19;;;;;;;109.05;30.88;;;-1.90;99.90;;;;;;5071983;28;20028;-84
2020/12/15 04:50:10;;;;;;;94.70;29.13;;;-2.00;99.90;;;;;;5054811;28;20017;-85
2020/12/15 04:52:55;;;;;;;99.35;30.40;;;-2.10;99.90;;;;;;5054849;28;20446;-84
2020/12/15 04:55:21;;;;;;;84.55;31.08;;;-2.10;99.90;;;;;;5055170;28;20020;-85
2020/12/15 04:57:47;;;;;;;104.32;29.85;;;-2.10;99.90;;;;;;5054692;28;20186;-84
2020/12/15 05:00:15;;;;;;;73.68;27.33;;;-2.10;99.90;;;;;;5055342;28;20070;-84
2020/12/15 05:02:44;;;;;;;82.72;29.40;;;-2.20;99.90;;;;;;5073668;28;20017;-84
2020/12/15 05:05:10;;;;;;;80.78;26.40;;;-2.20;99.90;;;;;;5074939;28;20044;-85
2020/12/15 05:07:45;;;;;;;77.95;28.48;;;-2.20;99.90;;;;;;5054784;28;20032;-85
2020/12/15 05:10:16;;;;;;;83.50;30.42;;;-2.30;99.90;;;;;;5071792;28;20059;-85
2020/12/15 05:12:42;;;;;;;80.00;28.20;;;-2.30;99.90;;;;;;5072914;28;20031;-85
2020/12/15 05:15:13;;;;;;;76.35;29.58;;;-2.30;99.90;;;;;;5056272;28;20033;-86
2020/12/15 05:17:39;;;;;;;84.05;31.25;;;-2.40;99.90;;;;;;5054546;28;20043;-85
2020/12/15 05:20:10;;;;;;;73.10;29.55;;;-2.40;99.90;;;;;;5037693;28;20036;-84
2020/12/15 05:22:48;;;;;;;79.70;28.95;;;-2.60;99.90;;;;;;5069075;28;20021;-84
2020/12/15 05:25:40;;;;;;;86.70;32.95;;;-2.60;99.90;;;;;;5069579;28;20390;-84
2020/12/15 05:28:11;;;;;;;80.60;31.85;;;-2.60;99.90;;;;;;5035841;28;20040;-84
2020/12/15 05:30:37;;;;;;;82.30;32.50;;;-2.70;99.90;;;;;;5052440;28;20528;-84
2020/12/15 05:33:03;;;;;;;77.57;28.83;;;-2.70;99.90;;;;;;5054162;28;20029;-84
2020/12/15 05:35:33;;;;;;;72.10;28.80;;;-2.70;99.90;;;;;;5036912;28;20023;-84
2020/12/15 05:38:02;;;;;;;65.82;25.42;;;-2.70;99.90;;;;;;5054882;28;20047;-84
2020/12/15 05:40:27;;;;;;;64.40;25.20;;;-2.70;99.90;;;;;;5057016;28;20043;-84
2020/12/15 05:42:58;;;;;;;68.63;30.88;;;-2.80;99.90;;;;;;5038159;28;20033;-85
2020/12/15 05:45:25;;;;;;;64.22;25.52;;;-2.80;99.90;;;;;;5038199;28;20215;-84
2020/12/15 05:48:00;;;;;;;66.28;26.55;;;-2.90;99.90;;;;;;5056098;28;20079;-84
2020/12/15 05:50:26;;;;;;;62.45;25.92;;;-2.90;99.90;;;;;;5038222;28;20075;-83
2020/12/15 05:52:56;;;;;;;66.25;25.42;;;-3.00;99.90;;;;;;5055619;28;20478;-84
2020/12/15 05:55:22;;;;;;;63.00;24.77;;;-3.00;99.90;;;;;;5044765;28;20020;-83
2020/12/15 05:57:48;;;;;;;66.60;24.27;;;-3.00;99.90;;;;;;5054364;28;20090;-85
2020/12/15 06:00:13;;;;;;;63.35;26.30;;;-3.10;99.90;;;;;;5037762;28;20382;-85
2020/12/15 06:02:40;;;;;;;54.95;23.48;;;-3.10;99.90;;;;;;5055688;28;20025;-85
2020/12/15 06:05:07;;;;;;;53.10;23.00;;;-3.10;99.90;;;;;;5038636;28;20017;-83
2020/12/15 06:07:33;;;;;;;62.65;28.40;;;-3.20;99.90;;;;;;5075449;28;20509;-83
2020/12/15 06:10:00;;;;;;;67.88;28.98;;;-3.20;99.90;;;;;;5059458;28;20433;-84
2020/12/15 06:12:26;;;;;;;62.67;26.50;;;-3.20;99.90;;;;;;5075942;28;20401;-82
2020/12/15 06:14:52;;;;;;;66.05;27.45;;;-3.20;99.90;;;;;;5057766;28;20039;-81
2020/12/15 06:17:18;;;;;;;59.40;25.30;;;-3.30;99.90;;;;;;5062111;28;20036;-81
2020/12/15 06:19:44;;;;;;;59.13;25.65;;;-3.30;99.90;;;;;;5057607;28;20052;-82
2020/12/15 06:22:10;;;;;;;85.35;36.80;;;-3.40;99.90;;;;;;5057098;28;20060;-82
2020/12/15 06:24:40;;;;;;;110.78;47.08;;;-3.40;99.90;;;;;;5076761;28;20029;-82
2020/12/15 06:27:08;;;;;;;94.78;38.47;;;-3.40;99.90;;;;;;5051971;28;20029;-82
2020/12/15 06:29:37;;;;;;;109.22;42.40;;;-3.40;99.90;;;;;;5039327;28;20053;-79
2020/12/15 06:32:11;;;;;;;88.20;34.70;;;-3.40;99.90;;;;;;5061719;28;20028;-85
2020/12/15 06:34:37;;;;;;;72.20;29.05;;;-3.40;99.90;;;;;;5075478;28;20017;-82
2020/12/15 06:37:02;;;;;;;80.60;31.13;;;-3.40;99.90;;;;;;5076967;28;20082;-82
2020/12/15 06:39:29;;;;;;;74.85;30.95;;;-3.40;99.90;;;;;;5077244;28;20035;-85
2020/12/15 06:42:00;;;;;;;72.55;30.52;;;-3.40;99.90;;;;;;5042327;28;20055;-84
2020/12/15 06:44:31;;;;;;;73.82;31.75;;;-3.40;99.90;;;;;;5054925;28;20479;-84
2020/12/15 06:46:58;;;;;;;71.80;28.77;;;-3.30;99.90;;;;;;5070060;28;20074;-83
2020/12/15 06:49:35;;;;;;;63.60;26.65;;;-3.40;99.90;;;;;;5069901;28;20489;-83
2020/12/15 06:52:06;;;;;;;67.95;25.25;;;-3.30;99.90;;;;;;5073009;28;20021;-83
2020/12/15 06:54:34;;;;;;;57.90;24.80;;;-3.30;99.90;;;;;;5060744;28;20428;-85
2020/12/15 06:57:07;;;;;;;64.38;28.90;;;-3.30;99.90;;;;;;5084064;28;20021;-86
2020/12/15 06:59:40;;;;;;;56.55;27.02;;;-3.30;99.90;;;;;;5057614;28;20020;-85
2020/12/15 07:02:16;;;;;;;54.97;26.13;;;-3.30;99.90;;;;;;5061174;28;20023;-85
2020/12/15 07:04:46;;;;;;;68.45;26.15;;;-3.30;99.90;;;;;;5063716;28;20012;-85
2020/12/15 07:07:12;;;;;;;62.95;24.92;;;-3.20;99.90;;;;;;5057688;28;20056;-87
2020/12/15 07:09:38;;;;;;;61.40;26.63;;;-3.20;99.90;;;;;;5056105;28;20043;-85
2020/12/15 07:12:14;;;;;;;66.60;26.90;;;-3.20;99.90;;;;;;5056533;28;20149;-86
2020/12/15 07:14:51;;;;;;;66.53;26.25;;;-3.10;99.90;;;;;;5055678;28;20071;-86
2020/12/15 07:17:17;;;;;;;67.13;27.17;;;-3.10;99.90;;;;;;5055640;28;20036;-86
2020/12/15 07:19:43;;;;;;;75.63;28.58;;;-3.00;99.90;;;;;;5056012;28;20021;-86
2020/12/15 07:22:09;;;;;;;77.50;31.50;;;-3.00;99.90;;;;;;5075183;28;20427;-87
2020/12/15 07:24:35;;;;;;;59.67;24.58;;;-2.90;99.90;;;;;;5056595;28;20027;-86
2020/12/15 07:27:02;;;;;;;53.58;24.38;;;-2.90;99.90;;;;;;5074081;28;20020;-87
2020/12/15 07:29:28;;;;;;;58.83;25.67;;;-2.80;99.90;;;;;;5056735;28;20020;-86
2020/12/15 07:31:54;;;;;;;49.47;23.80;;;-2.80;99.90;;;;;;5056061;28;20074;-86
2020/12/15 07:34:20;;;;;;;55.65;25.02;;;-2.70;99.90;;;;;;5056069;28;20142;-86
2020/12/15 07:36:48;;;;;;;60.45;25.27;;;-2.60;99.90;;;;;;5074292;28;20544;-86
2020/12/15 07:39:14;;;;;;;72.93;25.73;;;-2.60;99.90;;;;;;5056898;28;20036;-85
2020/12/15 07:41:41;;;;;;;53.33;26.38;;;-2.50;99.90;;;;;;5056791;28;20616;-86
2020/12/15 07:44:11;;;;;;;61.53;25.70;;;-2.50;99.90;;;;;;5057158;28;20021;-85
2020/12/15 07:46:43;;;;;;;65.18;27.25;;;-2.40;99.90;;;;;;5055803;28;20382;-86
2020/12/15 07:49:09;;;;;;;65.45;28.00;;;-2.40;99.90;;;;;;5055890;28;20027;-87
2020/12/15 07:51:38;;;;;;;63.40;28.15;;;-2.30;99.90;;;;;;5057163;28;20115;-87
2020/12/15 07:54:05;;;;;;;65.57;28.85;;;-2.20;99.90;;;;;;5056147;28;20025;-87
2020/12/15 07:56:31;;;;;;;61.42;27.33;;;-2.20;99.90;;;;;;5056359;28;20100;-87
2020/12/15 07:58:57;;;;;;;85.85;31.42;;;-2.10;99.90;;;;;;5053327;28;20033;-86
2020/12/15 08:01:30;;;;;;;65.78;28.65;;;-2.00;99.90;;;;;;5055117;28;20087;-86
2020/12/15 08:04:00;;;;;;;;;;;-2.00;99.90;;;;;;5070014;28;20028;-86
2020/12/15 08:06:31;;;;;;;58.78;26.00;;;-1.80;99.90;;;;;;5036075;28;19905;-85
2020/12/15 08:08:58;;;;;;;62.42;26.27;;;-1.70;99.90;;;;;;5068654;28;20021;-85
2020/12/15 08:11:24;;;;;;;56.78;25.05;;;-1.70;99.90;;;;;;5054748;28;20390;-86
2020/12/15 08:13:51;;;;;;;55.78;24.05;;;-1.60;99.90;;;;;;5068695;28;20111;-85
2020/12/15 08:16:16;;;;;;;50.00;22.85;;;-1.50;99.90;;;;;;5053380;28;20051;-85
2020/12/15 08:18:44;;;;;;;59.58;25.55;;;-1.50;99.90;;;;;;5053169;28;20065;-86
2020/12/15 08:21:15;;;;;;;55.30;25.00;;;-1.40;99.90;;;;;;5035323;28;20044;-86
2020/12/15 08:23:50;;;;;;;61.53;26.38;;;-1.40;99.90;;;;;;5053082;28;20467;-86
2020/12/15 08:26:17;;;;;;;59.60;24.23;;;-1.30;99.90;;;;;;5071578;28;20016;-86
2020/12/15 08:28:47;;;;;;;50.05;24.02;;;-1.30;99.90;;;;;;5040818;28;20024;-84
2020/12/15 08:31:13;;;;;;;55.53;26.23;;;-1.20;99.90;;;;;;5055443;28;20027;-85
2020/12/15 08:33:39;;;;;;;55.70;25.67;;;-1.20;99.90;;;;;;5073008;28;20017;-85
2020/12/15 08:36:10;;;;;;;57.08;23.73;;;-1.10;99.90;;;;;;5073688;28;20039;-86
2020/12/15 08:38:41;;;;;;;58.63;27.63;;;-1.10;99.90;;;;;;5056027;28;20044;-88
2020/12/15 08:41:11;;;;;;;59.75;26.05;;;-1.00;99.90;;;;;;5073173;28;20032;-87
2020/12/15 08:43:37;;;;;;;61.50;26.08;;;-1.00;99.90;;;;;;5076055;28;20029;-87
2020/12/15 08:46:13;;;;;;;64.78;26.75;;;-0.90;99.90;;;;;;5055042;28;20028;-85
2020/12/15 08:48:39;;;;;;;63.75;28.30;;;-0.80;99.90;;;;;;5041951;28;20029;-87
2020/12/15 08:51:16;;;;;;;64.03;29.13;;;-0.70;99.90;;;;;;5053851;28;20159;-85
2020/12/15 08:53:45;;;;;;;61.65;28.60;;;-0.60;99.90;;;;;;5052907;28;20056;-86
2020/12/15 08:56:13;;;;;;;60.17;30.63;;;-0.50;99.90;;;;;;5052540;28;20025;-84
2020/12/15 08:58:39;;;;;;;66.47;30.48;;;-0.40;99.90;;;;;;5068376;28;20445;-85
2020/12/15 09:01:05;;;;;;;69.57;29.27;;;-0.30;99.90;;;;;;5034813;28;20029;-84
2020/12/15 09:03:34;;;;;;;60.03;25.98;;;-0.30;99.90;;;;;;5068319;28;20025;-87
2020/12/15 09:06:00;;;;;;;63.25;28.58;;;-0.20;99.90;;;;;;5070653;28;20467;-87
2020/12/15 09:08:27;;;;;;;69.93;31.48;;;-0.20;99.90;;;;;;5035898;28;20116;-88
2020/12/15 09:10:55;;;;;;;61.92;27.13;;;-0.20;99.90;;;;;;5052474;28;20033;-86
2020/12/15 09:13:21;;;;;;;61.20;26.40;;;-0.10;99.90;;;;;;5054366;28;20036;-85
2020/12/15 09:15:48;;;;;;;60.38;27.73;;;-0.10;99.90;;;;;;5059421;28;20112;-85
2020/12/15 09:18:15;;;;;;;60.90;26.33;;;-0.10;99.90;;;;;;5065858;28;20051;-87
2020/12/15 09:20:43;;;;;;;59.20;24.88;;;0.00;99.90;;;;;;5058978;28;20044;-87
2020/12/15 09:23:09;;;;;;;57.75;27.25;;;0.00;99.90;;;;;;5058692;28;20470;-88
2020/12/15 09:25:35;;;;;;;52.50;25.27;;;0.20;99.90;;;;;;5076187;28;20029;-88
2020/12/15 09:28:01;;;;;;;58.92;27.17;;;0.30;99.90;;;;;;5076054;28;20039;-89
2020/12/15 09:30:27;;;;;;;58.22;25.80;;;0.30;99.90;;;;;;5075621;28;20024;-91
2020/12/15 09:32:54;;;;;;;53.90;26.20;;;0.40;99.90;;;;;;5076137;28;20021;-89
2020/12/15 09:35:20;;;;;;;52.25;25.75;;;0.50;99.90;;;;;;5059623;28;20501;-88
2020/12/15 09:37:47;;;;;;;63.22;26.17;;;0.60;99.90;;;;;;5058021;28;20029;-87
2020/12/15 09:40:16;;;;;;;52.08;24.67;;;0.60;99.90;;;;;;5056787;28;20040;-87
2020/12/15 09:42:45;;;;;;;50.30;23.13;;;0.80;99.90;;;;;;5058098;28;20031;-87
2020/12/15 09:45:11;;;;;;;59.92;25.35;;;0.90;99.90;;;;;;5061054;28;20035;-88
2020/12/15 09:47:42;;;;;;;59.83;27.38;;;0.90;99.90;;;;;;5058035;28;20059;-88
2020/12/15 09:50:09;;;;;;;49.53;22.42;;;1.00;99.90;;;;;;5058178;28;20017;-87
2020/12/15 09:52:37;;;;;;;52.80;23.23;;;1.00;99.90;;;;;;5042298;28;20050;-87
2020/12/15 09:55:02;;;;;;;52.13;24.30;;;1.10;99.90;;;;;;5057722;28;20020;-86
2020/12/15 09:57:29;;;;;;;51.63;23.63;;;1.10;99.90;;;;;;5078861;28;20058;-87
2020/12/15 09:59:58;;;;;;;52.33;25.17;;;1.20;99.90;;;;;;5057854;28;20040;-86
2020/12/15 10:02:26;;;;;;;54.40;24.92;;;1.30;99.90;;;;;;5041033;28;20025;-88
2020/12/15 10:04:56;;;;;;;46.08;22.88;;;1.30;99.90;;;;;;5075989;28;20078;-87
2020/12/15 10:07:22;;;;;;;52.38;22.92;;;1.40;99.90;;;;;;5075488;28;20097;-86
2020/12/15 10:09:54;;;;;;;51.45;24.52;;;1.50;99.90;;;;;;5077085;28;20063;-84
2020/12/15 10:12:20;;;;;;;50.45;24.15;;;1.60;99.90;;;;;;5042855;28;20127;-87
2020/12/15 10:14:48;;;;;;;48.13;23.83;;;1.70;99.90;;;;;;5057841;28;20036;-87
2020/12/15 10:17:15;;;;;;;51.63;23.27;;;1.80;99.90;;;;;;5057325;28;20032;-86
2020/12/15 10:19:41;;;;;;;50.92;24.42;;;1.80;99.90;;;;;;5057772;28;20041;-85
2020/12/15 10:22:09;;;;;;;56.72;25.05;;;1.90;99.90;;;;;;5040903;28;20036;-88
2020/12/15 10:24:35;;;;;;;53.97;25.00;;;1.90;99.90;;;;;;5057540;28;20115;-87
2020/12/15 10:27:02;;;;;;;48.17;22.65;;;2.00;99.90;;;;;;5057825;28;20035;-88
2020/12/15 10:29:30;;;;;;;53.03;24.55;;;2.10;99.90;;;;;;5057237;28;20058;-88
2020/12/15 10:31:57;;;;;;;48.55;23.63;;;2.20;99.90;;;;;;5072839;28;20474;-88
2020/12/15 10:34:24;;;;;;;45.13;22.15;;;2.20;99.90;;;;;;5075529;28;20412;-88
2020/12/15 10:36:50;;;;;;;49.03;21.50;;;2.30;99.90;;;;;;5075414;28;20052;-88
2020/12/15 10:39:17;;;;;;;50.58;22.05;;;2.30;99.90;;;;;;5064839;28;20478;-86
2020/12/15 10:41:44;;;;;;;46.38;22.20;;;2.40;99.90;;;;;;5055206;28;20028;-88
2020/12/15 10:44:14;;;;;;;46.88;22.42;;;2.50;99.90;;;;;;5038229;28;20130;-87
2020/12/15 10:46:47;;;;;;;45.53;22.45;;;2.50;99.90;;;;;;5070710;28;20039;-88
2020/12/15 10:49:16;;;;;;;50.95;23.30;;;2.60;99.90;;;;;;5058226;28;20033;-88
2020/12/15 10:51:42;;;;;;;54.05;24.40;;;2.70;99.90;;;;;;5071140;28;20112;-88
2020/12/15 10:54:09;;;;;;;49.15;23.50;;;2.70;99.90;;;;;;5054954;28;20021;-87
2020/12/15 10:56:35;;;;;;;52.85;26.38;;;2.80;99.90;;;;;;5056779;28;20103;-88
2020/12/15 10:59:01;;;;;;;45.50;21.80;;;2.90;99.90;;;;;;5075428;28;20036;-87
2020/12/15 11:01:28;;;;;;;41.45;22.08;;;3.00;99.90;;;;;;5055708;28;20037;-88
2020/12/15 11:03:54;;;;;;;43.30;20.77;;;3.00;99.90;;;;;;5054685;28;20017;-87
2020/12/15 11:06:24;;;;;;;47.20;20.65;;;3.00;99.90;;;;;;5053096;28;20449;-87
2020/12/15 11:08:50;;;;;;;50.92;23.23;;;3.10;99.90;;;;;;5053652;28;20024;-88
2020/12/15 11:11:19;;;;;;;56.15;23.65;;;3.10;99.90;;;;;;5053756;28;20091;-87
2020/12/15 11:13:46;;;;;;;48.95;22.15;;;3.20;99.90;;;;;;5067171;28;20116;-88
2020/12/15 11:16:12;;;;;;;43.58;22.50;;;3.20;99.90;;;;;;5040854;28;20039;-89
2020/12/15 11:18:37;;;;;;;47.90;21.52;;;3.30;99.90;;;;;;5075296;28;20395;-85
2020/12/15 11:21:03;;;;;;;45.38;20.67;;;3.30;99.90;;;;;;5057509;28;20028;-85
2020/12/15 11:23:29;;;;;;;47.95;21.98;;;3.30;99.90;;;;;;5057094;28;20157;-86
2020/12/15 11:25:56;;;;;;;38.92;19.42;;;3.40;99.90;;;;;;5057165;28;20024;-86
2020/12/15 11:28:21;;;;;;;48.75;22.15;;;3.40;99.90;;;;;;5057328;28;20048;-86
2020/12/15 11:30:47;;;;;;;42.53;20.67;;;3.40;99.90;;;;;;5055233;28;20029;-84
2020/12/15 11:33:13;;;;;;;40.42;20.15;;;3.50;99.90;;;;;;5069641;28;20059;-86
2020/12/15 11:35:40;;;;;;;39.95;19.80;;;3.50;99.90;;;;;;5035845;28;20055;-86
2020/12/15 11:38:05;;;;;;;41.22;19.77;;;3.60;99.90;;;;;;5053663;28;20466;-86
2020/12/15 11:40:31;;;;;;;45.15;21.83;;;3.60;99.90;;;;;;5057377;28;20021;-83
2020/12/15 11:42:58;;;;;;;44.70;23.10;;;3.70;99.90;;;;;;5074685;28;20017;-86
2020/12/15 11:45:25;;;;;;;46.20;21.95;;;3.70;99.90;;;;;;5055561;28;20523;-86
2020/12/15 11:47:56;;;;;;;49.53;22.75;;;3.60;99.90;;;;;;5071937;28;20044;-87
2020/12/15 11:50:24;;;;;;;53.35;21.67;;;3.60;99.90;;;;;;5057375;28;20040;-86
2020/12/15 11:52:49;;;;;;;45.53;21.77;;;3.60;99.90;;;;;;5074227;28;20040;-87
2020/12/15 11:55:15;;;;;;;48.22;22.00;;;3.60;99.90;;;;;;5057139;28;20016;-88
2020/12/15 11:57:41;;;;;;;52.42;23.63;;;3.50;99.90;;;;;;5074727;28;20024;-86
2020/12/15 12:00:08;;;;;;;51.50;23.88;;;3.50;99.90;;;;;;5088453;28;20029;-86
2020/12/15 12:02:35;;;;;;;49.03;24.20;;;3.50;99.90;;;;;;5056749;28;20021;-86
2020/12/15 12:05:01;;;;;;;51.78;24.35;;;3.50;99.90;;;;;;5036525;28;20068;-86
2020/12/15 12:07:29;;;;;;;48.88;24.48;;;3.50;99.90;;;;;;5073761;28;20036;-87
2020/12/15 12:09:57;;;;;;;50.17;25.70;;;3.50;99.90;;;;;;5043001;28;20036;-87
2020/12/15 12:12:24;;;;;;;56.70;28.05;;;3.50;99.90;;;;;;5061419;28;20028;-88
2020/12/15 12:14:54;;;;;;;53.97;29.35;;;3.40;99.90;;;;;;5057158;28;20029;-88
2020/12/15 12:17:21;;;;;;;65.78;28.23;;;3.40;99.90;;;;;;5073704;28;20035;-87
2020/12/15 12:19:48;;;;;;;59.05;27.67;;;3.40;99.90;;;;;;5073422;28;20027;-87
2020/12/15 12:22:13;;;;;;;57.78;30.00;;;3.40;99.90;;;;;;5038166;28;20020;-87
2020/12/15 12:24:40;;;;;;;56.72;28.00;;;3.40;99.90;;;;;;5073053;28;20020;-83
2020/12/15 12:27:07;;;;;;;60.08;28.95;;;3.40;99.90;;;;;;5055295;28;20025;-87
2020/12/15 12:29:33;;;;;;;60.85;29.40;;;3.40;99.90;;;;;;5088763;28;20017;-87